createdAt,value
2017-01-17T00:00:56.035Z,2.12
2017-01-17T00:02:05.010Z,2.14
2017-01-17T00:03:13.988Z,2.14
2017-01-17T00:04:22.974Z,2.07
2017-01-17T00:05:31.957Z,2.16
2017-01-17T00:06:40.942Z,2.16
2017-01-17T00:07:50.281Z,2.07
2017-01-17T00:08:59.263Z,2.05
2017-01-17T00:10:08.244Z,2.1
2017-01-17T00:11:17.254Z,2.05
2017-01-17T00:12:26.291Z,2.05
2017-01-17T00:13:35.274Z,2.07
2017-01-17T00:14:44.260Z,1.98
2017-01-17T00:15:54.051Z,2
2017-01-17T00:17:04.045Z,1.98
2017-01-17T00:18:13.076Z,2.06
2017-01-17T00:19:22.055Z,2.06
2017-01-17T00:20:31.511Z,2.07
2017-01-17T00:21:40.982Z,2.1
2017-01-17T00:22:49.961Z,2.2
2017-01-17T00:23:58.941Z,2.2
2017-01-17T00:25:09.716Z,2.2
2017-01-17T00:26:18.698Z,2.17
2017-01-17T00:27:29.402Z,2.16
2017-01-17T00:28:38.426Z,2.06
2017-01-17T00:29:49.371Z,2.06
2017-01-17T00:31:01.101Z,2.06
2017-01-17T00:32:10.193Z,2.05
2017-01-17T00:33:23.618Z,2.06
2017-01-17T00:34:35.541Z,1.91
2017-01-17T00:35:48.238Z,2.03
2017-01-17T00:36:58.463Z,1.98
2017-01-17T00:38:10.336Z,1.99
2017-01-17T00:39:20.953Z,1.93
2017-01-17T00:40:35.370Z,2
2017-01-17T00:41:44.356Z,1.91
2017-01-17T00:42:55.250Z,2.02
2017-01-17T00:44:06.571Z,1.98
2017-01-17T00:45:17.111Z,1.95
2017-01-17T00:46:30.370Z,1.93
2017-01-17T00:47:40.055Z,1.86
2017-01-17T00:48:49.058Z,1.91
2017-01-17T00:49:58.037Z,1.86
2017-01-17T00:51:07.024Z,1.81
2017-01-17T00:52:16.004Z,1.8
2017-01-17T00:53:24.985Z,1.8
2017-01-17T00:54:33.964Z,1.77
2017-01-17T00:55:42.951Z,1.73
2017-01-17T00:56:51.930Z,1.77
2017-01-17T00:58:00.911Z,1.73
2017-01-17T00:59:09.892Z,1.69
2017-01-17T01:00:18.875Z,1.72
2017-01-17T01:01:27.859Z,1.7
2017-01-17T01:02:36.839Z,1.72
2017-01-17T01:03:45.819Z,1.55
2017-01-17T01:04:54.796Z,1.55
2017-01-17T01:06:03.778Z,1.58
2017-01-17T01:07:12.754Z,1.48
2017-01-17T01:08:21.735Z,1.44
2017-01-17T01:09:30.768Z,1.41
2017-01-17T01:10:39.759Z,1.48
2017-01-17T01:11:48.743Z,1.45
2017-01-17T01:12:57.728Z,1.42
2017-01-17T01:14:06.712Z,1.47
2017-01-17T01:15:15.686Z,1.44
2017-01-17T01:16:24.663Z,1.4
2017-01-17T01:17:33.639Z,1.36
2017-01-17T01:18:42.624Z,1.37
2017-01-17T01:19:51.607Z,1.24
2017-01-17T01:21:00.590Z,1.33
2017-01-17T01:22:09.577Z,1.27
2017-01-17T01:23:18.561Z,1.29
2017-01-17T01:24:27.537Z,1.33
2017-01-17T01:25:36.518Z,1.33
2017-01-17T01:26:45.499Z,1.33
2017-01-17T01:27:54.475Z,1.33
2017-01-17T01:29:03.455Z,1.32
2017-01-17T01:30:12.436Z,1.34
2017-01-17T01:31:21.418Z,1.33
2017-01-17T01:32:30.397Z,1.27
2017-01-17T01:33:39.805Z,1.32
2017-01-17T01:34:48.782Z,1.29
2017-01-17T01:35:57.767Z,1.26
2017-01-17T01:37:06.746Z,1.33
2017-01-17T01:38:15.728Z,1.29
2017-01-17T01:39:24.711Z,1.29
2017-01-17T01:40:33.694Z,1.36
2017-01-17T01:41:42.672Z,1.44
2017-01-17T01:42:51.652Z,1.45
2017-01-17T01:44:00.631Z,1.5
2017-01-17T01:45:09.631Z,1.48
2017-01-17T01:46:18.614Z,1.47
2017-01-17T01:47:27.618Z,1.45
2017-01-17T01:48:36.598Z,1.47
2017-01-17T01:49:45.579Z,1.33
2017-01-17T01:50:54.557Z,1.34
2017-01-17T01:52:03.533Z,1.37
2017-01-17T01:53:12.520Z,1.41
2017-01-17T01:54:21.507Z,1.47
2017-01-17T01:55:30.484Z,1.47
2017-01-17T01:56:39.468Z,1.42
2017-01-17T01:57:48.448Z,1.48
2017-01-17T01:58:57.430Z,1.44
2017-01-17T02:00:06.411Z,1.42
2017-01-17T02:01:15.394Z,1.54
2017-01-17T02:02:24.953Z,1.47
2017-01-17T02:03:33.932Z,1.58
2017-01-17T02:04:42.907Z,1.54
2017-01-17T02:05:51.889Z,1.58
2017-01-17T02:07:00.866Z,1.58
2017-01-17T02:08:09.842Z,1.6
2017-01-17T02:09:18.825Z,1.54
2017-01-17T02:10:27.800Z,1.59
2017-01-17T02:11:36.785Z,1.54
2017-01-17T02:12:45.766Z,1.59
2017-01-17T02:13:54.749Z,1.65
2017-01-17T02:15:03.729Z,1.51
2017-01-17T02:16:12.717Z,1.6
2017-01-17T02:17:21.700Z,1.6
2017-01-17T02:18:30.677Z,1.65
2017-01-17T02:19:39.659Z,1.68
2017-01-17T02:20:48.649Z,1.69
2017-01-17T02:21:57.627Z,1.65
2017-01-17T02:23:06.609Z,1.7
2017-01-17T02:24:15.591Z,1.68
2017-01-17T02:25:24.572Z,1.69
2017-01-17T02:26:33.556Z,1.83
2017-01-17T02:27:42.535Z,1.79
2017-01-17T02:28:51.521Z,1.69
2017-01-17T02:30:00.504Z,1.66
2017-01-17T02:31:09.485Z,1.65
2017-01-17T02:32:18.467Z,1.7
2017-01-17T02:33:27.447Z,1.59
2017-01-17T02:34:36.432Z,1.52
2017-01-17T02:35:45.413Z,1.62
2017-01-17T02:36:54.394Z,1.6
2017-01-17T02:38:03.377Z,1.62
2017-01-17T02:39:12.368Z,1.66
2017-01-17T02:40:21.349Z,1.63
2017-01-17T02:41:30.330Z,1.52
2017-01-17T02:42:39.309Z,1.58
2017-01-17T02:43:48.287Z,1.51
2017-01-17T02:44:57.269Z,1.44
2017-01-17T02:46:06.245Z,1.62
2017-01-17T02:47:15.220Z,1.45
2017-01-17T02:48:24.198Z,1.45
2017-01-17T02:49:33.174Z,1.59
2017-01-17T02:50:42.161Z,1.54
2017-01-17T02:51:51.139Z,1.45
2017-01-17T02:53:00.515Z,1.51
2017-01-17T02:54:09.541Z,1.55
2017-01-17T02:55:18.531Z,1.44
2017-01-17T02:56:27.510Z,1.54
2017-01-17T02:57:36.488Z,1.45
2017-01-17T02:58:45.474Z,1.47
2017-01-17T02:59:54.459Z,1.5
2017-01-17T03:01:03.441Z,1.42
2017-01-17T03:02:12.423Z,1.47
2017-01-17T03:03:21.405Z,1.37
2017-01-17T03:04:30.384Z,1.5
2017-01-17T03:05:39.360Z,1.5
2017-01-17T03:06:48.342Z,1.44
2017-01-17T03:07:57.325Z,1.34
2017-01-17T03:09:06.307Z,1.3
2017-01-17T03:10:15.291Z,1.33
2017-01-17T03:11:24.274Z,1.3
2017-01-17T03:12:33.254Z,1.18
2017-01-17T03:13:42.268Z,1.2
2017-01-17T03:14:51.248Z,1
2017-01-17T03:16:00.225Z,0.98
2017-01-17T03:17:09.225Z,0.9
2017-01-17T03:18:18.209Z,0.91
2017-01-17T03:19:27.194Z,0.87
2017-01-17T03:20:36.175Z,0.87
2017-01-17T03:21:45.158Z,0.79
2017-01-17T03:22:54.142Z,0.76
2017-01-17T03:24:03.117Z,0.79
2017-01-17T03:25:12.099Z,0.8
2017-01-17T03:26:21.076Z,0.76
2017-01-17T03:27:30.052Z,0.78
2017-01-17T03:28:39.035Z,0.75
2017-01-17T03:29:48.013Z,0.79
2017-01-17T03:30:56.994Z,0.79
2017-01-17T03:32:05.972Z,0.78
2017-01-17T03:33:14.956Z,0.69
2017-01-17T03:34:23.943Z,0.75
2017-01-17T03:35:32.927Z,0.75
2017-01-17T03:36:41.910Z,0.65
2017-01-17T03:37:50.892Z,0.7
2017-01-17T03:38:59.869Z,0.76
2017-01-17T03:40:08.851Z,0.75
2017-01-17T03:41:17.845Z,0.69
2017-01-17T03:42:26.827Z,0.68
2017-01-17T03:43:35.839Z,0.68
2017-01-17T03:44:44.819Z,0.78
2017-01-17T03:45:53.800Z,0.8
2017-01-17T03:47:02.781Z,0.84
2017-01-17T03:48:11.759Z,0.83
2017-01-17T03:49:20.745Z,0.8
2017-01-17T03:50:29.724Z,0.83
2017-01-17T03:51:38.707Z,0.75
2017-01-17T03:52:47.684Z,0.69
2017-01-17T03:53:56.671Z,0.6
2017-01-17T03:55:05.652Z,0.66
2017-01-17T03:56:14.633Z,0.6
2017-01-17T03:57:23.614Z,0.55
2017-01-17T03:58:32.597Z,0.6
2017-01-17T03:59:41.580Z,0.58
2017-01-17T04:00:50.563Z,0.57
2017-01-17T04:01:59.540Z,0.58
2017-01-17T04:03:08.526Z,0.57
2017-01-17T04:04:17.511Z,0.58
2017-01-17T04:05:26.490Z,0.62
2017-01-17T04:06:35.470Z,0.6
2017-01-17T04:07:44.448Z,0.6
2017-01-17T04:08:53.427Z,0.6
2017-01-17T04:10:02.434Z,0.61
2017-01-17T04:11:11.414Z,0.49
2017-01-17T04:12:20.393Z,0.58
2017-01-17T04:13:29.374Z,0.57
2017-01-17T04:14:38.360Z,0.55
2017-01-17T04:15:47.344Z,0.53
2017-01-17T04:16:56.321Z,0.49
2017-01-17T04:18:05.300Z,0.53
2017-01-17T04:19:14.290Z,0.5
2017-01-17T04:20:23.274Z,0.5
2017-01-17T04:21:32.258Z,0.53
2017-01-17T04:22:41.234Z,0.51
2017-01-17T04:23:50.214Z,0.38
2017-01-17T04:24:59.200Z,0.39
2017-01-17T04:26:08.182Z,0.28
2017-01-17T04:27:17.158Z,0.35
2017-01-17T04:28:26.167Z,0.33
2017-01-17T04:29:35.155Z,0.29
2017-01-17T04:30:44.144Z,0.26
2017-01-17T04:31:53.137Z,0.23
2017-01-17T04:33:02.118Z,0.38
2017-01-17T04:34:11.095Z,0.35
2017-01-17T04:35:20.068Z,0.38
2017-01-17T04:36:29.047Z,0.38
2017-01-17T04:37:38.026Z,0.36
2017-01-17T04:38:47.011Z,0.38
2017-01-17T04:39:55.991Z,0.38
2017-01-17T04:41:04.969Z,0.49
2017-01-17T04:42:13.949Z,0.42
2017-01-17T04:43:22.926Z,0.42
2017-01-17T04:44:31.906Z,0.42
2017-01-17T04:45:40.880Z,0.36
2017-01-17T04:46:49.853Z,0.29
2017-01-17T04:47:58.829Z,0.26
2017-01-17T04:49:07.808Z,0.23
2017-01-17T04:50:16.785Z,0.23
2017-01-17T04:51:25.759Z,0.23
2017-01-17T04:52:34.739Z,0.2
2017-01-17T04:53:43.722Z,0.23
2017-01-17T04:54:52.709Z,0.31
2017-01-17T04:56:01.698Z,0.21
2017-01-17T04:57:10.681Z,0.17
2017-01-17T04:58:19.660Z,0.33
2017-01-17T04:59:28.642Z,0.32
2017-01-17T05:00:37.620Z,0.24
2017-01-17T05:01:46.597Z,0.18
2017-01-17T05:02:55.584Z,0.14
2017-01-17T05:04:04.565Z,0.21
2017-01-17T05:05:13.563Z,0.21
2017-01-17T05:06:22.545Z,0.24
2017-01-17T05:07:31.538Z,0.31
2017-01-17T05:08:40.517Z,0.32
2017-01-17T05:09:49.497Z,0.29
2017-01-17T05:10:58.491Z,0.28
2017-01-17T05:12:07.475Z,0.29
2017-01-17T05:13:16.451Z,0.31
2017-01-17T05:14:25.440Z,0.36
2017-01-17T05:15:34.417Z,0.39
2017-01-17T05:16:43.393Z,0.31
2017-01-17T05:17:52.366Z,0.41
2017-01-17T05:19:01.349Z,0.39
2017-01-17T05:20:10.324Z,0.33
2017-01-17T05:21:19.307Z,0.36
2017-01-17T05:22:28.283Z,0.28
2017-01-17T05:23:37.267Z,0.28
2017-01-17T05:24:46.248Z,0.26
2017-01-17T05:25:55.225Z,0.23
2017-01-17T05:27:04.204Z,0.15
2017-01-17T05:28:13.186Z,0.11
2017-01-17T05:29:22.165Z,0.02
2017-01-17T05:30:31.149Z,0.04
2017-01-17T05:31:40.149Z,0.1
2017-01-17T05:32:49.123Z,0.03
2017-01-17T05:33:58.096Z,-0.05
2017-01-17T05:35:07.077Z,-0.07
2017-01-17T05:36:16.052Z,-0.07
2017-01-17T05:37:25.039Z,-0.08
2017-01-17T05:38:34.021Z,0.03
2017-01-17T05:39:43.012Z,0.03
2017-01-17T05:40:51.991Z,0.02
2017-01-17T05:42:00.983Z,0
2017-01-17T05:43:09.969Z,-0.01
2017-01-17T05:44:18.962Z,0.08
2017-01-17T05:45:27.938Z,0.04
2017-01-17T05:46:36.913Z,0.13
2017-01-17T05:47:45.900Z,0.11
2017-01-17T05:48:54.877Z,0.18
2017-01-17T05:50:03.849Z,0.18
2017-01-17T05:51:12.824Z,0.13
2017-01-17T05:52:21.801Z,0.15
2017-01-17T05:53:30.781Z,0.17
2017-01-17T05:54:39.787Z,0.14
2017-01-17T05:55:48.799Z,0.17
2017-01-17T05:56:57.774Z,0.26
2017-01-17T05:58:06.748Z,0.24
2017-01-17T05:59:15.731Z,0.21
2017-01-17T06:00:24.710Z,0.23
2017-01-17T06:01:33.690Z,0.29
2017-01-17T06:02:42.666Z,0.29
2017-01-17T06:03:51.654Z,0.32
2017-01-17T06:05:00.646Z,0.21
2017-01-17T06:06:09.627Z,0.24
2017-01-17T06:07:18.608Z,0.36
2017-01-17T06:08:27.589Z,0.29
2017-01-17T06:09:36.569Z,0.26
2017-01-17T06:10:45.555Z,0.28
2017-01-17T06:11:54.539Z,0.28
2017-01-17T06:13:03.523Z,0.28
2017-01-17T06:14:12.518Z,0.36
2017-01-17T06:15:21.493Z,0.38
2017-01-17T06:16:30.465Z,0.32
2017-01-17T06:17:39.473Z,0.36
2017-01-17T06:18:48.456Z,0.31
2017-01-17T06:19:57.435Z,0.31
2017-01-17T06:21:06.420Z,0.29
2017-01-17T06:22:15.403Z,0.21
2017-01-17T06:23:24.392Z,0.26
2017-01-17T06:24:33.373Z,0.31
2017-01-17T06:25:42.352Z,0.26
2017-01-17T06:26:51.326Z,0.21
2017-01-17T06:28:00.316Z,0.26
2017-01-17T06:29:09.711Z,0.28
2017-01-17T06:30:18.690Z,0.36
2017-01-17T06:31:27.729Z,0.29
2017-01-17T06:32:36.712Z,0.29
2017-01-17T06:33:45.689Z,0.29
2017-01-17T06:34:54.674Z,0.29
2017-01-17T06:36:03.667Z,0.33
2017-01-17T06:37:12.645Z,0.39
2017-01-17T06:38:21.627Z,0.39
2017-01-17T06:39:30.631Z,0.36
2017-01-17T06:40:39.610Z,0.44
2017-01-17T06:41:48.592Z,0.5
2017-01-17T06:42:57.574Z,0.47
2017-01-17T06:44:06.555Z,0.47
2017-01-17T06:45:15.530Z,0.47
2017-01-17T06:46:24.508Z,0.49
2017-01-17T06:47:33.486Z,0.36
2017-01-17T06:48:42.465Z,0.42
2017-01-17T06:49:51.454Z,0.39
2017-01-17T06:51:00.432Z,0.41
2017-01-17T06:52:09.428Z,0.42
2017-01-17T06:53:18.404Z,0.36
2017-01-17T06:54:27.384Z,0.36
2017-01-17T06:55:36.362Z,0.38
2017-01-17T06:56:45.340Z,0.49
2017-01-17T06:57:54.327Z,0.47
2017-01-17T06:59:03.328Z,0.5
2017-01-17T07:00:12.324Z,0.49
2017-01-17T07:01:21.302Z,0.58
2017-01-17T07:02:30.279Z,0.58
2017-01-17T07:03:39.259Z,0.55
2017-01-17T07:04:48.241Z,0.55
2017-01-17T07:05:57.226Z,0.61
2017-01-17T07:07:06.227Z,0.62
2017-01-17T07:08:15.207Z,0.62
2017-01-17T07:09:24.192Z,0.55
2017-01-17T07:10:33.172Z,0.58
2017-01-17T07:11:42.155Z,0.51
2017-01-17T07:12:51.140Z,0.6
2017-01-17T07:14:00.122Z,0.68
2017-01-17T07:15:09.104Z,0.72
2017-01-17T07:16:18.081Z,0.62
2017-01-17T07:17:27.061Z,0.62
2017-01-17T07:18:36.042Z,0.72
2017-01-17T07:19:45.027Z,0.61
2017-01-17T07:20:54.006Z,0.7
2017-01-17T07:22:02.989Z,0.76
2017-01-17T07:23:11.966Z,0.7
2017-01-17T07:24:20.968Z,0.65
2017-01-17T07:25:29.946Z,0.73
2017-01-17T07:26:38.925Z,0.69
2017-01-17T07:27:47.906Z,0.73
2017-01-17T07:28:56.887Z,0.7
2017-01-17T07:30:05.876Z,0.76
2017-01-17T07:31:15.043Z,0.73
2017-01-17T07:32:24.206Z,0.68
2017-01-17T07:33:33.184Z,0.73
2017-01-17T07:34:42.164Z,0.68
2017-01-17T07:35:51.143Z,0.68
2017-01-17T07:37:00.147Z,0.68
2017-01-17T07:38:09.134Z,0.7
2017-01-17T07:39:18.109Z,0.7
2017-01-17T07:40:27.088Z,0.73
2017-01-17T07:41:36.801Z,0.68
2017-01-17T07:42:45.780Z,0.75
2017-01-17T07:43:54.761Z,0.72
2017-01-17T07:45:03.749Z,0.69
2017-01-17T07:46:12.868Z,0.62
2017-01-17T07:47:21.851Z,0.69
2017-01-17T07:48:30.872Z,0.66
2017-01-17T07:49:39.853Z,0.6
2017-01-17T07:50:48.841Z,0.62
2017-01-17T07:51:57.824Z,0.58
2017-01-17T07:53:06.810Z,0.62
2017-01-17T07:54:15.792Z,0.55
2017-01-17T07:55:24.769Z,0.58
2017-01-17T07:56:33.766Z,0.61
2017-01-17T07:57:42.747Z,0.55
2017-01-17T07:58:51.749Z,0.47
2017-01-17T08:00:00.742Z,0.57
2017-01-17T08:01:11.265Z,0.53
2017-01-17T08:02:22.640Z,0.58
2017-01-17T08:03:31.967Z,0.61
2017-01-17T08:04:42.115Z,0.6
2017-01-17T08:05:51.227Z,0.65
2017-01-17T08:07:00.322Z,0.69
2017-01-17T08:08:09.679Z,0.7
2017-01-17T08:09:18.657Z,0.68
2017-01-17T08:10:27.643Z,0.61
2017-01-17T08:11:37.540Z,0.51
2017-01-17T08:12:46.993Z,0.65
2017-01-17T08:13:56.850Z,0.55
2017-01-17T08:15:06.817Z,0.61
2017-01-17T08:16:16.834Z,0.6
2017-01-17T08:17:26.712Z,0.68
2017-01-17T08:18:37.106Z,0.68
2017-01-17T08:19:46.905Z,0.66
2017-01-17T08:20:57.677Z,0.73
2017-01-17T08:22:07.298Z,0.69
2017-01-17T08:23:16.956Z,0.66
2017-01-17T08:24:26.570Z,0.68
2017-01-17T08:25:35.548Z,0.78
2017-01-17T08:26:44.530Z,0.62
2017-01-17T08:27:53.708Z,0.8
2017-01-17T08:29:03.251Z,0.62
2017-01-17T08:30:12.343Z,0.73
2017-01-17T08:31:23.117Z,0.8
2017-01-17T08:32:33.866Z,0.8
2017-01-17T08:33:42.850Z,0.86
2017-01-17T08:34:52.004Z,0.83
2017-01-17T08:36:01.537Z,0.93
2017-01-17T08:37:11.096Z,0.84
2017-01-17T08:38:21.342Z,0.93
2017-01-17T08:39:31.610Z,0.9
2017-01-17T08:40:41.747Z,0.86
2017-01-17T08:41:52.434Z,0.93
2017-01-17T08:43:01.766Z,0.9
2017-01-17T08:44:11.043Z,0.98
2017-01-17T08:45:20.057Z,1
2017-01-17T08:46:29.827Z,0.91
2017-01-17T08:47:39.086Z,1.04
2017-01-17T08:48:48.064Z,1.05
2017-01-17T08:49:58.537Z,0.94
2017-01-17T08:51:07.517Z,1.06
2017-01-17T08:52:16.665Z,1.06
2017-01-17T08:53:25.813Z,1.23
2017-01-17T08:54:35.441Z,1.12
2017-01-17T08:55:44.429Z,1.08
2017-01-17T08:56:53.412Z,0.98
2017-01-17T08:58:02.392Z,1.04
2017-01-17T08:59:11.374Z,0.96
2017-01-17T09:00:20.379Z,0.88
2017-01-17T09:01:29.358Z,0.86
2017-01-17T09:02:38.365Z,0.83
2017-01-17T09:03:47.349Z,0.8
2017-01-17T09:04:56.356Z,0.87
2017-01-17T09:06:05.337Z,0.9
2017-01-17T09:07:14.328Z,0.96
2017-01-17T09:08:23.308Z,0.87
2017-01-17T09:09:32.282Z,1.04
2017-01-17T09:10:41.263Z,0.96
2017-01-17T09:11:50.243Z,1.02
2017-01-17T09:12:59.222Z,1.11
2017-01-17T09:14:08.216Z,1.06
2017-01-17T09:15:17.204Z,1.14
2017-01-17T09:16:26.186Z,1.12
2017-01-17T09:17:35.165Z,1.15
2017-01-17T09:18:44.146Z,1.18
2017-01-17T09:19:53.132Z,1.2
2017-01-17T09:21:02.111Z,1.16
2017-01-17T09:22:11.223Z,1.22
2017-01-17T09:23:20.202Z,1.29
2017-01-17T09:24:29.180Z,1.34
2017-01-17T09:25:38.162Z,1.36
2017-01-17T09:26:47.143Z,1.42
2017-01-17T09:27:56.124Z,1.44
2017-01-17T09:29:05.103Z,1.48
2017-01-17T09:30:14.090Z,1.48
2017-01-17T09:31:23.069Z,1.5
2017-01-17T09:32:32.060Z,1.62
2017-01-17T09:33:41.042Z,1.66
2017-01-17T09:34:50.157Z,1.68
2017-01-17T09:35:59.147Z,1.68
2017-01-17T09:37:08.488Z,1.7
2017-01-17T09:38:17.465Z,1.81
2017-01-17T09:39:26.448Z,1.77
2017-01-17T09:40:35.703Z,1.84
2017-01-17T09:41:44.686Z,1.87
2017-01-17T09:42:53.685Z,1.87
2017-01-17T09:44:03.069Z,1.98
2017-01-17T09:45:12.057Z,1.98
2017-01-17T09:46:21.043Z,2.03
2017-01-17T09:47:30.033Z,2.07
2017-01-17T09:48:39.016Z,2
2017-01-17T09:49:48.005Z,1.95
2017-01-17T09:50:57.022Z,2.03
2017-01-17T09:52:06.044Z,2
2017-01-17T09:53:15.035Z,1.95
2017-01-17T09:54:24.020Z,2.06
2017-01-17T09:55:33.005Z,2.02
2017-01-17T09:56:41.986Z,2.21
2017-01-17T09:57:50.963Z,2.16
2017-01-17T09:58:59.943Z,2.03
2017-01-17T10:00:08.956Z,2.07
2017-01-17T10:01:17.938Z,2.16
2017-01-17T10:02:26.928Z,2.14
2017-01-17T10:03:36.052Z,2.17
2017-01-17T10:04:45.032Z,2.17
2017-01-17T10:05:54.014Z,2.21
2017-01-17T10:07:02.992Z,2.21
2017-01-17T10:08:11.969Z,2.28
2017-01-17T10:09:21.700Z,2.3
2017-01-17T10:10:31.186Z,2.3
2017-01-17T10:11:40.164Z,2.43
2017-01-17T10:12:49.142Z,2.38
2017-01-17T10:13:58.128Z,2.43
2017-01-17T10:15:07.248Z,2.43
2017-01-17T10:16:16.227Z,2.41
2017-01-17T10:17:25.209Z,2.52
2017-01-17T10:18:34.199Z,2.53
2017-01-17T10:19:43.339Z,2.52
2017-01-17T10:20:52.319Z,2.57
2017-01-17T10:22:01.302Z,2.6
2017-01-17T10:23:10.402Z,2.61
2017-01-17T10:24:19.516Z,2.57
2017-01-17T10:25:29.126Z,2.59
2017-01-17T10:26:38.992Z,2.59
2017-01-17T10:27:48.811Z,2.6
2017-01-17T10:28:58.096Z,2.54
2017-01-17T10:30:07.692Z,2.59
2017-01-17T10:31:17.413Z,2.64
2017-01-17T10:32:29.408Z,2.69
2017-01-17T10:33:40.195Z,2.61
2017-01-17T10:34:50.191Z,2.63
2017-01-17T10:35:59.913Z,2.66
2017-01-17T10:37:09.265Z,2.74
2017-01-17T10:38:18.603Z,2.74
2017-01-17T10:39:27.641Z,2.77
2017-01-17T10:40:37.506Z,2.78
2017-01-17T10:41:47.305Z,2.75
2017-01-17T10:42:57.779Z,2.72
2017-01-17T10:44:08.516Z,2.63
2017-01-17T10:45:18.209Z,2.71
2017-01-17T10:46:28.178Z,2.77
2017-01-17T10:47:38.014Z,2.79
2017-01-17T10:48:47.027Z,2.82
2017-01-17T10:49:56.120Z,2.89
2017-01-17T10:51:05.503Z,2.89
2017-01-17T10:52:14.489Z,2.79
2017-01-17T10:53:23.472Z,2.85
2017-01-17T10:54:32.453Z,2.89
2017-01-17T10:55:41.438Z,2.87
2017-01-17T10:56:50.425Z,2.89
2017-01-17T10:57:59.410Z,2.85
2017-01-17T10:59:08.391Z,2.9
2017-01-17T11:00:17.369Z,2.92
2017-01-17T11:01:26.368Z,2.89
2017-01-17T11:02:35.385Z,2.93
2017-01-17T11:03:44.384Z,3.02
2017-01-17T11:04:53.376Z,3.06
2017-01-17T11:06:02.357Z,2.96
2017-01-17T11:07:11.343Z,3
2017-01-17T11:08:20.324Z,3.05
2017-01-17T11:09:29.314Z,3.14
2017-01-17T11:10:38.293Z,3.08
2017-01-17T11:11:47.273Z,3.06
2017-01-17T11:12:56.261Z,3
2017-01-17T11:14:05.247Z,3.02
2017-01-17T11:15:14.251Z,3.13
2017-01-17T11:16:23.234Z,3.02
2017-01-17T11:17:32.213Z,3.11
2017-01-17T11:18:41.197Z,3.23
2017-01-17T11:19:50.408Z,3.1
2017-01-17T11:20:59.593Z,3.14
2017-01-17T11:22:08.574Z,3.2
2017-01-17T11:23:17.563Z,3.23
2017-01-17T11:24:26.552Z,3.21
2017-01-17T11:25:35.536Z,3.14
2017-01-17T11:26:44.518Z,3.18
2017-01-17T11:27:54.108Z,3.23
2017-01-17T11:29:03.093Z,3.32
2017-01-17T11:30:12.074Z,3.32
2017-01-17T11:31:21.057Z,3.39
2017-01-17T11:32:30.041Z,3.42
2017-01-17T11:33:39.206Z,3.42
2017-01-17T11:34:48.249Z,3.47
2017-01-17T11:35:57.324Z,3.48
2017-01-17T11:37:06.504Z,3.51
2017-01-17T11:38:15.601Z,3.55
2017-01-17T11:39:24.586Z,3.57
2017-01-17T11:40:33.564Z,3.58
2017-01-17T11:41:42.547Z,3.6
2017-01-17T11:42:51.531Z,3.6
2017-01-17T11:44:00.514Z,3.73
2017-01-17T11:45:10.353Z,3.76
2017-01-17T11:46:19.335Z,3.78
2017-01-17T11:47:28.318Z,3.79
2017-01-17T11:48:37.706Z,3.8
2017-01-17T11:49:47.022Z,3.76
2017-01-17T11:50:56.328Z,3.83
2017-01-17T11:52:05.305Z,3.75
2017-01-17T11:53:14.311Z,3.7
2017-01-17T11:54:23.292Z,3.69
2017-01-17T11:55:32.300Z,3.7
2017-01-17T11:56:41.280Z,3.73
2017-01-17T11:57:50.260Z,3.79
2017-01-17T11:58:59.242Z,3.76
2017-01-17T12:00:08.226Z,3.79
2017-01-17T12:01:17.216Z,3.83
2017-01-17T12:02:26.199Z,3.96
2017-01-17T12:03:35.184Z,3.96
2017-01-17T12:04:44.166Z,3.93
2017-01-17T12:05:53.148Z,4.02
2017-01-17T12:07:02.220Z,4.02
2017-01-17T12:08:11.792Z,4.05
2017-01-17T12:09:20.778Z,4.12
2017-01-17T12:10:29.909Z,4.09
2017-01-17T12:11:38.937Z,4.18
2017-01-17T12:12:47.938Z,4.08
2017-01-17T12:13:57.063Z,4.12
2017-01-17T12:15:06.046Z,4.14
2017-01-17T12:16:15.029Z,4.06
2017-01-17T12:17:24.014Z,3.98
2017-01-17T12:18:32.999Z,4.02
2017-01-17T12:19:41.981Z,4.02
2017-01-17T12:20:50.963Z,4.12
2017-01-17T12:22:00.542Z,4.15
2017-01-17T12:23:09.525Z,4.16
2017-01-17T12:24:18.507Z,4.16
2017-01-17T12:25:27.676Z,4.23
2017-01-17T12:26:36.835Z,4.16
2017-01-17T12:27:46.584Z,4.2
2017-01-17T12:28:55.806Z,4.16
2017-01-17T12:30:05.787Z,4.09
2017-01-17T12:31:16.678Z,4.12
2017-01-17T12:32:27.466Z,4.09
2017-01-17T12:33:37.461Z,4.09
2017-01-17T12:34:46.442Z,3.98
2017-01-17T12:35:55.779Z,4
2017-01-17T12:37:07.979Z,4.02
2017-01-17T12:38:16.963Z,4.16
2017-01-17T12:39:25.946Z,4.14
2017-01-17T12:40:34.929Z,4.11
2017-01-17T12:41:43.907Z,4.08
2017-01-17T12:42:52.888Z,4.16
2017-01-17T12:44:01.871Z,4.12
2017-01-17T12:45:10.854Z,4.14
2017-01-17T12:46:19.834Z,4.14
2017-01-17T12:47:29.492Z,4.09
2017-01-17T12:48:38.810Z,4.14
2017-01-17T12:49:48.462Z,4.12
2017-01-17T12:50:57.834Z,4.14
2017-01-17T12:52:07.304Z,4.05
2017-01-17T12:53:16.290Z,4.15
2017-01-17T12:54:25.557Z,4.11
2017-01-17T12:55:35.400Z,4.16
2017-01-17T12:56:44.383Z,4.2
2017-01-17T12:57:54.238Z,4.23
2017-01-17T12:59:04.670Z,4.24
2017-01-17T13:00:13.942Z,4.15
2017-01-17T13:01:23.273Z,4.29
2017-01-17T13:02:32.977Z,4.22
2017-01-17T13:03:43.249Z,4.18
2017-01-17T13:04:52.788Z,4.12
2017-01-17T13:06:02.619Z,4.04
2017-01-17T13:07:12.106Z,3.96
2017-01-17T13:08:21.579Z,4.08
2017-01-17T13:09:30.962Z,4.05
2017-01-17T13:10:40.153Z,4.12
2017-01-17T13:11:49.441Z,4.08
2017-01-17T13:12:58.654Z,4.2
2017-01-17T13:14:07.968Z,4.15
2017-01-17T13:15:17.380Z,4.11
2017-01-17T13:16:26.848Z,4.22
2017-01-17T13:17:36.464Z,4.27
2017-01-17T13:18:45.596Z,4.24
2017-01-17T13:19:54.725Z,4.29
2017-01-17T13:21:03.811Z,4.26
2017-01-17T13:22:12.887Z,4.2
2017-01-17T13:23:21.943Z,4.27
2017-01-17T13:24:31.090Z,4.22
2017-01-17T13:25:40.268Z,4.29
2017-01-17T13:26:49.331Z,4.27
2017-01-17T13:27:58.435Z,4.33
2017-01-17T13:29:07.499Z,4.32
2017-01-17T13:30:16.597Z,4.32
2017-01-17T13:31:25.704Z,4.4
2017-01-17T13:32:34.835Z,4.37
2017-01-17T13:33:43.902Z,4.37
2017-01-17T13:34:52.988Z,4.44
2017-01-17T13:36:02.057Z,4.32
2017-01-17T13:37:11.093Z,4.29
2017-01-17T13:38:20.152Z,4.33
2017-01-17T13:39:29.274Z,4.36
2017-01-17T13:40:38.353Z,4.36
2017-01-17T13:41:47.413Z,4.47
2017-01-17T13:42:56.591Z,4.33
2017-01-17T13:44:05.711Z,4.42
2017-01-17T13:45:14.771Z,4.4
2017-01-17T13:46:23.869Z,4.4
2017-01-17T13:47:32.941Z,4.4
2017-01-17T13:48:42.094Z,4.3
2017-01-17T13:49:51.160Z,4.29
2017-01-17T13:51:00.325Z,4.18
2017-01-17T13:52:09.505Z,4.2
2017-01-17T13:53:18.567Z,4.16
2017-01-17T13:54:27.633Z,4.09
2017-01-17T13:55:36.767Z,4.12
2017-01-17T13:56:45.807Z,4.12
2017-01-17T13:57:54.901Z,4.08
2017-01-17T13:59:03.957Z,4
2017-01-17T14:00:13.175Z,4.08
2017-01-17T14:01:22.599Z,4.12
2017-01-17T14:02:31.967Z,4.09
2017-01-17T14:03:41.310Z,4.11
2017-01-17T14:04:50.713Z,4.16
2017-01-17T14:06:00.135Z,4.09
2017-01-17T14:07:09.403Z,4.06
2017-01-17T14:08:19.720Z,3.93
2017-01-17T14:09:29.188Z,3.97
2017-01-17T14:10:38.634Z,4.04
2017-01-17T14:11:48.046Z,3.93
2017-01-17T14:12:57.320Z,4.12
2017-01-17T14:14:06.666Z,4.08
2017-01-17T14:15:16.127Z,4.11
2017-01-17T14:16:25.636Z,4.08
2017-01-17T14:17:35.335Z,4.08
2017-01-17T14:18:44.873Z,4.11
2017-01-17T14:19:54.384Z,4.08
2017-01-17T14:21:05.403Z,4.14
2017-01-17T14:22:14.616Z,4.11
2017-01-17T14:23:24.745Z,4.09
2017-01-17T14:24:34.399Z,4.14
2017-01-17T14:25:43.780Z,4.14
2017-01-17T14:26:53.469Z,4.11
2017-01-17T14:28:03.209Z,4.14
2017-01-17T14:29:12.667Z,3.98
2017-01-17T14:30:22.109Z,3.98
2017-01-17T14:31:31.575Z,3.94
2017-01-17T14:32:41.007Z,4.04
2017-01-17T14:33:50.697Z,4.08
2017-01-17T14:35:00.269Z,4.16
2017-01-17T14:36:09.958Z,4.12
2017-01-17T14:37:19.459Z,4.15
2017-01-17T14:38:29.124Z,4.14
2017-01-17T14:39:38.967Z,4.06
2017-01-17T14:40:48.457Z,3.93
2017-01-17T14:41:57.952Z,3.96
2017-01-17T14:43:07.534Z,3.88
2017-01-17T14:44:16.734Z,3.9
2017-01-17T14:45:26.356Z,3.86
2017-01-17T14:46:36.012Z,3.86
2017-01-17T14:47:45.637Z,3.93
2017-01-17T14:48:55.342Z,3.88
2017-01-17T14:50:04.834Z,3.91
2017-01-17T14:51:14.349Z,3.94
2017-01-17T14:52:23.684Z,3.9
2017-01-17T14:53:33.217Z,3.96
2017-01-17T14:54:42.354Z,3.88
2017-01-17T14:55:51.338Z,3.91
2017-01-17T14:57:00.321Z,3.88
2017-01-17T14:58:09.309Z,3.93
2017-01-17T14:59:18.311Z,3.88
2017-01-17T15:00:27.293Z,3.75
2017-01-17T15:01:36.707Z,3.84
2017-01-17T15:02:45.693Z,3.79
2017-01-17T15:03:54.677Z,3.72
2017-01-17T15:05:06.076Z,3.86
2017-01-17T15:06:15.378Z,3.86
2017-01-17T15:07:24.788Z,3.7
2017-01-17T15:08:36.719Z,3.73
2017-01-17T15:09:49.695Z,3.75
2017-01-17T15:11:02.427Z,3.76
2017-01-17T15:12:11.407Z,3.62
2017-01-17T15:13:20.419Z,3.69
2017-01-17T15:14:29.578Z,3.57
2017-01-17T15:15:39.329Z,3.68
2017-01-17T15:16:48.828Z,3.68
2017-01-17T15:17:58.544Z,3.78
2017-01-17T15:19:07.580Z,3.79
2017-01-17T15:20:16.569Z,3.75
2017-01-17T15:21:25.562Z,3.79
2017-01-17T15:22:34.547Z,3.8
2017-01-17T15:23:43.539Z,3.83
2017-01-17T15:24:52.541Z,3.84
2017-01-17T15:26:01.528Z,3.83